Flood From: 17-02-2018 16:00 Until: 18-02-2018 16:00 warning for: Flood Level: Yellow info button

Although rather usual in this region, locally or potentially dangerous phenomena are expected. (such as local winds, summer thunderstorms, rising streams or high waves) Be aware and pay attention to the latest weather updates, especially if you carry out activities exposed to weather or close to a stream or shoreline. 


Meteo18 Weather Cam more information Meteo18 Weather Cam


Thunder radar more information blitzortung!


Rain radar more information rain snow radar


Visit our other weather sites:

Template documentation
and downloads

And another site



Weather Underground History page Text

Daily Summary for February 2, 2018 Units:  English    Metric   Both
« Previous Day
Next Day »
Daily Weekly Monthly Yearly Custom
  High: Low: Average:
Temperature: TemperatureC °F -2.7 °F 1.3 °F
Dew Point: DewpointC °F -3.1 °F 0.2 °F
Humidity: Humidity % 72 % 92 %
Wind Speed: WindSpeedKMH mph 0.0 mph 2.8 mph
Wind Gust: WindSpeedGustKMH mph - -
Wind:- - WSW
Pressure: PressurehPa in 1009.4 in -
Precipitation: 0.5 in    
Historical Graphs
 
 
Tabular Data for February 2, 2018
Time Temperature Dew Point Pressure Wind Wind Speed Wind Gust Humidity Rainfall Rate (Hourly)
TemperatureC °F DewpointC °F PressurehPa in Calm     Humidity % HourlyPrecipMM in
00:01 0.6 °F -0.1 °F 1009.4 in Calm   1.6 mph 95 % 0.0 in
00:07 0.6 °F 0.0 °F 1009.4 in Calm   1.6 mph 96 % 0.0 in
00:13 0.7 °F 0.1 °F 1009.4 in Calm   1.6 mph 96 % 0.0 in
00:19 0.6 °F 0.0 °F 1009.7 in WNW 1.4 mph 1.6 mph 96 % 0.0 in
00:25 0.6 °F 0.0 °F 1009.7 in Calm   1.6 mph 96 % 0.0 in
00:31 0.8 °F 0.2 °F 1009.7 in Calm   1.6 mph 96 % 0.0 in
00:37 0.9 °F 0.3 °F 1009.7 in Calm     96 % 0.0 in
00:43 0.7 °F 0.0 °F 1009.7 in Calm   1.6 mph 95 % 0.0 in
00:49 0.6 °F -0.1 °F 1009.7 in SSE 1.4 mph 1.6 mph 95 % 0.0 in
00:55 0.5 °F -0.2 °F 1009.7 in Calm   1.6 mph 95 % 0.0 in
01:02 0.4 °F -0.2 °F 1009.7 in Calm     96 % 0.0 in
01:08 0.3 °F -0.4 °F 1009.7 in Calm   1.6 mph 95 % 0.0 in
01:14 0.2 °F -0.5 °F 1009.7 in ESE 1.4 mph 3.2 mph 95 % 0.0 in
01:20 0.2 °F -0.4 °F 1009.7 in SE 4.7 mph 6.4 mph 96 % 0.0 in
01:26 0.1 °F -0.6 °F 1009.7 in Calm   1.6 mph 95 % 0.0 in
01:32 0.1 °F -0.5 °F 1009.7 in SE 3.2 mph 3.2 mph 96 % 0.0 in
01:38 0.0 °F -0.6 °F 1009.7 in SE 1.4 mph 1.6 mph 96 % 0.0 in
01:44 -0.2 °F -0.9 °F 1009.7 in Calm     95 % 0.0 in
01:50 -0.2 °F -0.8 °F 1009.7 in Calm     96 % 0.0 in
01:56 -0.3 °F -0.9 °F 1009.7 in Calm     96 % 0.0 in
02:02 -0.3 °F -0.9 °F 1009.7 in ESE 1.4 mph 1.6 mph 96 % 0.0 in
02:08 -0.3 °F -0.9 °F 1009.7 in Calm   3.2 mph 96 % 0.0 in
02:14 -0.4 °F -1.0 °F 1009.7 in Calm   1.6 mph 96 % 0.0 in
02:20 -0.4 °F -1.0 °F 1009.7 in Calm     96 % 0.0 in
02:26 -0.4 °F -1.0 °F 1009.7 in Calm   1.6 mph 96 % 0.0 in
02:32 -0.4 °F -1.0 °F 1010.0 in Calm   1.6 mph 96 % 0.0 in
02:38 -0.4 °F -0.8 °F 1010.0 in Calm     97 % 0.0 in
02:44 -0.4 °F -0.8 °F 1010.0 in Calm     97 % 0.0 in
02:50 -0.6 °F -1.2 °F 1010.0 in Calm     96 % 0.0 in
02:56 -0.8 °F -1.4 °F 1010.0 in Calm   1.6 mph 96 % 0.0 in
03:02 -0.8 °F -1.4 °F 1010.0 in Calm   1.6 mph 96 % 0.0 in
03:08 -0.8 °F -1.4 °F 1010.0 in Calm   1.6 mph 96 % 0.0 in
03:14 -0.8 °F -1.2 °F 1010.0 in Calm     97 % 0.0 in
03:20 -0.8 °F -1.2 °F 1010.0 in Calm     97 % 0.0 in
03:26 -1.0 °F -1.6 °F 1010.0 in Calm     96 % 0.0 in
03:32 -1.1 °F -1.7 °F 1010.0 in Calm     96 % 0.0 in
03:38 -1.1 °F -1.5 °F 1010.0 in Calm     97 % 0.0 in
03:44 -0.9 °F -1.3 °F 1010.0 in Calm     97 % 0.0 in
03:50 -1.0 °F -1.4 °F 1010.0 in Calm     97 % 0.0 in
03:57 -1.1 °F -1.5 °F 1010.0 in Calm     97 % 0.0 in
04:03 -1.1 °F -1.5 °F 1010.0 in Calm     97 % 0.0 in
04:09 -1.1 °F -1.5 °F 1010.0 in Calm     97 % 0.0 in
04:15 -1.0 °F -1.4 °F 1010.0 in Calm     97 % 0.0 in
04:21 -0.8 °F -1.2 °F 1010.0 in Calm     97 % 0.0 in
04:27 -0.8 °F -1.2 °F 1010.0 in Calm     97 % 0.0 in
04:33 -0.9 °F -1.3 °F 1010.0 in Calm     97 % 0.0 in
04:39 -0.8 °F -1.2 °F 1010.0 in Calm     97 % 0.0 in
04:45 -0.4 °F -0.8 °F 1010.0 in Calm     97 % 0.0 in
04:51 -0.6 °F -1.0 °F 1010.0 in Calm   1.6 mph 97 % 0.0 in
04:57 -0.8 °F -1.2 °F 1010.0 in Calm     97 % 0.0 in
05:03 -1.1 °F -1.7 °F 1010.0 in Calm     96 % 0.0 in
05:09 -1.3 °F -1.9 °F 1010.4 in Calm     96 % 0.0 in
05:15 -1.6 °F -2.2 °F 1010.4 in Calm     96 % 0.0 in
05:21 -1.5 °F -1.9 °F 1010.4 in Calm     97 % 0.0 in
05:27 -1.7 °F -2.3 °F 1010.4 in Calm     96 % 0.0 in
05:33 -1.8 °F -2.4 °F 1010.4 in Calm     96 % 0.0 in
05:39 -1.9 °F -2.5 °F 1010.4 in Calm   1.6 mph 96 % 0.0 in
05:45 -2.1 °F -2.7 °F 1010.4 in Calm   1.6 mph 96 % 0.0 in
05:51 -2.1 °F -2.5 °F 1010.4 in Calm   1.6 mph 97 % 0.0 in
05:57 -2.2 °F -2.8 °F 1010.4 in Calm     96 % 0.0 in
06:03 -2.3 °F -2.9 °F 1010.4 in Calm   1.6 mph 96 % 0.0 in
06:10 -2.4 °F -3.0 °F 1010.4 in Calm   1.6 mph 96 % 0.0 in
06:16 -2.6 °F -3.1 °F 1010.4 in Calm   1.6 mph 96 % 0.0 in
06:22 -2.6 °F -3.0 °F 1010.4 in Calm   1.6 mph 97 % 0.0 in
06:28 -2.7 °F -3.1 °F 1010.4 in SSE 1.4 mph 1.6 mph 97 % 0.0 in
06:34 -2.6 °F -3.0 °F 1010.4 in SSE 1.4 mph 1.6 mph 97 % 0.0 in
06:40 -2.6 °F -3.0 °F 1010.4 in Calm   1.6 mph 97 % 0.0 in
06:46 -2.6 °F -3.0 °F 1010.4 in Calm   1.6 mph 97 % 0.0 in
06:52 -2.5 °F -2.9 °F 1010.4 in Calm   1.6 mph 97 % 0.0 in
06:58 -2.6 °F -3.0 °F 1010.7 in Calm   1.6 mph 97 % 0.0 in
07:04 -2.6 °F -3.0 °F 1010.7 in ESE 1.4 mph 1.6 mph 97 % 0.0 in
07:10 -2.6 °F -3.0 °F 1010.7 in Calm   1.6 mph 97 % 0.0 in
07:16 -2.5 °F -2.9 °F 1010.7 in Calm   1.6 mph 97 % 0.0 in
07:22 -2.5 °F -2.9 °F 1010.7 in Calm     97 % 0.0 in
07:28 -2.6 °F -3.0 °F 1010.7 in Calm   1.6 mph 97 % 0.0 in
07:34 -2.5 °F -2.9 °F 1010.7 in Calm   1.6 mph 97 % 0.0 in
07:40 -2.5 °F -2.9 °F 1010.7 in Calm     97 % 0.0 in
07:46 -2.5 °F -2.9 °F 1010.7 in Calm     97 % 0.0 in
07:52 -2.6 °F -3.0 °F 1010.7 in Calm     97 % 0.0 in
07:58 -2.6 °F -3.0 °F 1010.7 in Calm   1.6 mph 97 % 0.0 in
08:04 -2.6 °F -3.0 °F 1011.1 in Calm   3.2 mph 97 % 0.0 in
08:10 -2.6 °F -3.0 °F 1010.7 in SSE 1.4 mph 1.6 mph 97 % 0.0 in
08:16 -2.6 °F -3.0 °F 1010.7 in SSE 1.4 mph 1.6 mph 97 % 0.0 in
08:22 -2.6 °F -3.0 °F 1010.7 in Calm   1.6 mph 97 % 0.0 in
08:28 -2.5 °F -2.9 °F 1010.7 in Calm   1.6 mph 97 % 0.0 in
08:34 -2.5 °F -2.9 °F 1010.7 in SSW 1.4 mph 1.6 mph 97 % 0.0 in
08:40 -2.5 °F -2.9 °F 1011.1 in Calm     97 % 0.0 in
08:46 -2.5 °F -2.9 °F 1011.1 in Calm   1.6 mph 97 % 0.0 in
08:52 -2.4 °F -2.8 °F 1011.1 in Calm     97 % 0.0 in
08:58 -2.3 °F -2.7 °F 1011.1 in Calm     97 % 0.0 in
09:04 -2.3 °F -2.7 °F 1011.4 in Calm     97 % 0.0 in
09:10 -2.2 °F -2.6 °F 1011.4 in Calm     97 % 0.0 in
09:16 -2.2 °F -2.6 °F 1011.4 in SSE 1.4 mph 1.6 mph 97 % 0.0 in
09:22 -2.2 °F -2.6 °F 1011.4 in Calm     97 % 0.0 in
09:28 -2.1 °F -2.5 °F 1011.4 in Calm   1.6 mph 97 % 0.0 in
09:34 -2.0 °F -2.4 °F 1011.4 in Calm   1.6 mph 97 % 0.0 in
09:40 -1.8 °F -2.2 °F 1011.4 in Calm     97 % 0.0 in
09:46 -1.8 °F -2.2 °F 1011.4 in Calm   1.6 mph 97 % 0.0 in
09:52 -1.6 °F -2.0 °F 1011.7 in Calm     97 % 0.0 in
09:58 -1.4 °F -1.8 °F 1011.7 in Calm     97 % 0.0 in
10:04 -1.3 °F -1.7 °F 1011.7 in Calm   1.6 mph 97 % 0.0 in
10:10 -1.3 °F -1.7 °F 1011.7 in Calm   1.6 mph 97 % 0.0 in
10:17 -1.2 °F -1.6 °F 1011.7 in Calm   1.6 mph 97 % 0.0 in
10:23 -1.1 °F -1.5 °F 1011.7 in Calm   1.6 mph 97 % 0.0 in
10:29 -0.9 °F -1.3 °F 1011.7 in South 1.4 mph 1.6 mph 97 % 0.0 in
10:35 -0.8 °F -1.2 °F 1011.7 in Calm   1.6 mph 97 % 0.0 in
10:41 -0.7 °F -1.1 °F 1011.7 in Calm     97 % 0.0 in
10:47 -0.6 °F -1.0 °F 1011.7 in Calm   3.2 mph 97 % 0.0 in
10:53 -0.4 °F -0.8 °F 1011.7 in Calm   3.2 mph 97 % 0.0 in
10:59 -0.4 °F -0.8 °F 1011.7 in Calm   1.6 mph 97 % 0.0 in
11:05 -0.3 °F -0.7 °F 1011.7 in SSW 1.4 mph 3.2 mph 97 % 0.0 in
11:11 -0.3 °F -0.7 °F 1011.7 in SSE 3.2 mph 3.2 mph 97 % 0.0 in
11:17 -0.2 °F -0.6 °F 1011.7 in South 1.4 mph 1.6 mph 97 % 0.0 in
11:23 0.1 °F -0.3 °F 1011.7 in Calm   1.6 mph 97 % 0.0 in
11:29 0.3 °F -0.1 °F 1011.7 in SSW 3.2 mph 3.2 mph 97 % 0.0 in
11:35 0.3 °F -0.1 °F 1011.7 in Calm   3.2 mph 97 % 0.0 in
11:41 0.4 °F 0.0 °F 1011.7 in SSE 1.4 mph 4.8 mph 97 % 0.0 in
11:47 0.4 °F 0.0 °F 1011.7 in South 4.7 mph 6.4 mph 97 % 0.0 in
11:53 0.5 °F 0.1 °F 1011.7 in SSW 6.4 mph 6.4 mph 97 % 0.0 in
11:59 0.7 °F 0.3 °F 1011.7 in SSE 3.2 mph 3.2 mph 97 % 0.0 in
12:05 0.9 °F 0.5 °F 1011.7 in SSW 3.2 mph 3.2 mph 97 % 0.0 in
12:11 1.1 °F 0.8 °F 1011.7 in SSW 6.4 mph 6.4 mph 98 % 0.0 in
12:17 1.2 °F 0.8 °F 1011.7 in SW 4.7 mph 6.4 mph 97 % 0.0 in
12:23 1.3 °F 0.9 °F 1011.7 in Calm   3.2 mph 97 % 0.0 in
12:29 1.6 °F 1.2 °F 1011.7 in SW 3.2 mph 3.2 mph 97 % 0.0 in
12:35 1.9 °F 1.6 °F 1011.7 in WSW 3.2 mph 3.2 mph 98 % 0.0 in
12:41 2.2 °F 1.9 °F 1011.7 in SW 3.2 mph 3.2 mph 98 % 0.3 in
12:47 2.7 °F 2.4 °F 1011.4 in SW 1.4 mph 3.2 mph 98 % 0.3 in
12:53 3.0 °F 2.7 °F 1011.4 in SSW 1.4 mph 8.0 mph 98 % 0.3 in
12:59 3.3 °F 2.9 °F 1011.1 in WSW 3.2 mph 6.4 mph 97 % 0.3 in
13:05 3.6 °F 3.0 °F 1011.1 in Calm   6.4 mph 96 % 0.3 in
13:11 3.7 °F 2.7 °F 1011.1 in WSW 6.4 mph 9.7 mph 93 % 0.3 in
13:17 4.0 °F 2.8 °F 1011.1 in WSW 6.4 mph 6.4 mph 92 % 0.3 in
13:23 3.9 °F 1.9 °F 1011.1 in SW 1.4 mph 12.9 mph 87 % 0.3 in
13:29 4.3 °F 2.3 °F 1011.1 in SE 1.4 mph 8.0 mph 87 % 0.3 in
13:35 4.5 °F 2.4 °F 1011.1 in SW 3.2 mph 6.4 mph 86 % 0.3 in
13:41 4.9 °F 2.9 °F 1011.1 in South 4.7 mph 9.7 mph 87 % 0.0 in
13:47 4.9 °F 3.1 °F 1010.7 in SW 7.9 mph 11.3 mph 88 % 0.0 in
13:53 4.8 °F 2.7 °F 1010.7 in WSW 7.9 mph 11.3 mph 86 % 0.0 in
13:59 5.1 °F 1.8 °F 1010.7 in NW 3.2 mph 9.7 mph 79 % 0.0 in
14:05 5.3 °F 2.0 °F 1010.7 in West 11.1 mph 11.3 mph 79 % 0.0 in
14:11 5.2 °F 2.7 °F 1010.7 in WSW 7.9 mph 12.9 mph 84 % 0.0 in
14:17 5.1 °F 2.3 °F 1010.7 in WNW 7.9 mph 16.1 mph 82 % 0.0 in
14:23 5.3 °F 1.0 °F 1010.7 in NW 7.9 mph 16.1 mph 74 % 0.0 in
14:29 5.3 °F 1.2 °F 1010.7 in WNW 9.7 mph 17.7 mph 75 % 0.0 in
14:35 5.3 °F 1.2 °F 1010.7 in WNW 9.7 mph 19.3 mph 75 % 0.0 in
14:41 5.3 °F 1.2 °F 1010.7 in West 7.9 mph 9.7 mph 75 % 0.0 in
14:47 5.2 °F 0.9 °F 1010.7 in Calm   11.3 mph 74 % 0.0 in
14:53 5.2 °F 1.1 °F 1010.7 in West 3.2 mph 8.0 mph 75 % 0.0 in
14:59 5.2 °F 1.3 °F 1010.7 in West 3.2 mph 8.0 mph 76 % 0.0 in
15:05 5.2 °F 1.3 °F 1010.7 in WNW 4.7 mph 12.9 mph 76 % 0.0 in
15:12 5.2 °F 0.6 °F 1010.7 in WNW 7.9 mph 11.3 mph 72 % 0.0 in
15:18 5.1 °F 0.5 °F 1010.7 in WNW 4.7 mph 11.3 mph 72 % 0.0 in
15:23 5.1 °F 0.5 °F 1010.7 in West 4.7 mph 9.7 mph 72 % 0.0 in
15:30 4.9 °F 1.7 °F 1010.7 in West 9.7 mph 12.9 mph 80 % 0.0 in
15:36 4.5 °F 2.5 °F 1010.7 in WSW 11.1 mph 14.5 mph 87 % 0.0 in
15:42 4.3 °F 2.5 °F 1011.1 in WSW 4.7 mph 11.3 mph 88 % 0.0 in
15:48 4.3 °F 2.5 °F 1010.7 in West 6.4 mph 11.3 mph 88 % 0.0 in
15:54 4.3 °F 2.5 °F 1010.7 in West 4.7 mph 11.3 mph 88 % 0.0 in
16:00 4.3 °F 2.5 °F 1011.1 in SW 11.1 mph 12.9 mph 88 % 0.0 in
16:06 4.2 °F 2.5 °F 1011.1 in West 3.2 mph 8.0 mph 89 % 0.0 in
16:12 4.1 °F 2.5 °F 1011.1 in West 6.4 mph 12.9 mph 89 % 0.0 in
16:18 4.1 °F 2.5 °F 1011.1 in WNW 14.3 mph 14.5 mph 89 % 0.0 in
16:24 4.1 °F 2.6 °F 1011.1 in WSW 3.2 mph 9.7 mph 90 % 0.0 in
16:30 4.0 °F 2.5 °F 1011.1 in WSW 7.9 mph 9.7 mph 90 % 0.0 in
16:36 4.1 °F 2.6 °F 1011.1 in WSW 6.4 mph 12.9 mph 90 % 0.0 in
16:42 4.1 °F 2.6 °F 1011.1 in WSW 4.7 mph 9.7 mph 90 % 0.0 in
16:48 4.2 °F 2.7 °F 1011.1 in WSW 7.9 mph 12.9 mph 90 % 0.0 in
16:54 4.2 °F 2.5 °F 1010.7 in WSW 11.1 mph 12.9 mph 89 % 0.0 in
17:00 4.2 °F 2.5 °F 1010.7 in SW 7.9 mph 12.9 mph 89 % 0.0 in
17:06 4.2 °F 2.7 °F 1010.7 in WSW 4.7 mph 11.3 mph 90 % 0.0 in
17:12 4.2 °F 2.7 °F 1010.7 in West 1.4 mph 6.4 mph 90 % 0.0 in
17:18 4.2 °F 2.7 °F 1010.7 in West 3.2 mph 11.3 mph 90 % 0.0 in
17:24 4.2 °F 2.7 °F 1010.7 in West 11.1 mph 11.3 mph 90 % 0.0 in
17:30 4.2 °F 2.7 °F 1010.7 in West 6.4 mph 12.9 mph 90 % 0.0 in
17:36 4.2 °F 2.7 °F 1010.7 in WSW 6.4 mph 12.9 mph 90 % 0.0 in
17:42 4.2 °F 2.7 °F 1010.7 in West 3.2 mph 9.7 mph 90 % 0.0 in
17:48 4.2 °F 2.7 °F 1010.7 in WSW 7.9 mph 9.7 mph 90 % 0.0 in
17:54 4.1 °F 2.8 °F 1010.7 in West 3.2 mph 11.3 mph 91 % 0.0 in
18:00 4.1 °F 2.8 °F 1010.7 in SW 3.2 mph 8.0 mph 91 % 0.0 in
18:06 4.1 °F 2.6 °F 1011.1 in WSW 3.2 mph 9.7 mph 90 % 0.0 in
18:12 4.0 °F 2.5 °F 1011.1 in WSW 3.2 mph 3.2 mph 90 % 0.0 in
18:18 4.0 °F 2.5 °F 1011.1 in WSW 3.2 mph 8.0 mph 90 % 0.0 in
18:24 3.9 °F 2.3 °F 1011.1 in West 3.2 mph 6.4 mph 89 % 0.0 in
18:30 3.9 °F 2.3 °F 1011.1 in West 4.7 mph 4.8 mph 89 % 0.0 in
18:36 3.9 °F 2.3 °F 1011.1 in West 3.2 mph 6.4 mph 89 % 0.0 in
18:42 3.9 °F 2.3 °F 1011.1 in West 1.4 mph 3.2 mph 89 % 0.0 in
18:48 3.9 °F 2.1 °F 1011.1 in WSW 1.4 mph 6.4 mph 88 % 0.0 in
18:54 3.9 °F 2.1 °F 1011.4 in West 1.4 mph 4.8 mph 88 % 0.0 in
19:00 3.9 °F 2.1 °F 1011.4 in West 1.4 mph 6.4 mph 88 % 0.0 in
19:06 3.9 °F 2.1 °F 1011.4 in NW 1.4 mph 4.8 mph 88 % 0.0 in
19:12 3.9 °F 2.1 °F 1011.4 in WNW 1.4 mph 6.4 mph 88 % 0.0 in
19:18 3.9 °F 1.9 °F 1011.7 in Calm   3.2 mph 87 % 0.0 in
19:24 3.9 °F 2.1 °F 1011.7 in Calm     88 % 0.0 in
19:30 3.9 °F 2.1 °F 1011.4 in Calm   1.6 mph 88 % 0.0 in
19:36 3.8 °F 2.0 °F 1011.7 in Calm   1.6 mph 88 % 0.0 in
19:42 3.8 °F 2.0 °F 1011.7 in West 3.2 mph 3.2 mph 88 % 0.0 in
19:48 3.9 °F 1.9 °F 1011.4 in WSW 3.2 mph 4.8 mph 87 % 0.0 in
19:54 3.9 °F 1.9 °F 1011.4 in WNW 4.7 mph 6.4 mph 87 % 0.0 in
20:00 3.9 °F 1.9 °F 1011.7 in WNW 6.4 mph 11.3 mph 87 % 0.0 in
20:06 3.9 °F 1.9 °F 1011.4 in WNW 6.4 mph 17.7 mph 87 % 0.0 in
20:12 3.9 °F 1.9 °F 1011.4 in West 4.7 mph 12.9 mph 87 % 0.3 in
20:18 3.9 °F 1.9 °F 1011.4 in NW 3.2 mph 14.5 mph 87 % 0.3 in
20:24 3.9 °F 2.1 °F 1011.7 in NW 6.4 mph 14.5 mph 88 % 0.3 in
20:30 3.9 °F 2.1 °F 1011.7 in NW 6.4 mph 20.9 mph 88 % 0.3 in
20:36 3.7 °F 1.9 °F 1011.7 in NNW 9.7 mph 14.5 mph 88 % 0.3 in
20:42 3.7 °F 2.1 °F 1011.7 in NNW 6.4 mph 17.7 mph 89 % 0.3 in
20:48 3.6 °F 2.0 °F 1011.7 in NNW 7.9 mph 19.3 mph 89 % 0.5 in
20:54 3.4 °F 1.9 °F 1011.7 in NW 4.7 mph 16.1 mph 90 % 0.5 in
21:00 3.2 °F 1.7 °F 1011.7 in NNW 14.3 mph 14.5 mph 90 % 0.5 in
21:06 3.1 °F 1.8 °F 1011.7 in NNW 3.2 mph 8.0 mph 91 % 0.5 in
21:12 2.9 °F 1.6 °F 1011.7 in NNW 4.7 mph 8.0 mph 91 % 0.3 in
21:18 2.9 °F 1.7 °F 1011.7 in NNW 6.4 mph 6.4 mph 92 % 0.3 in
21:24 2.9 °F 1.7 °F 1011.7 in WNW 4.7 mph 8.0 mph 92 % 0.3 in
21:30 2.9 °F 1.7 °F 1011.7 in NW 4.7 mph 8.0 mph 92 % 0.3 in
21:36 2.9 °F 1.7 °F 1011.7 in WNW 3.2 mph 9.7 mph 92 % 0.3 in
21:42 2.9 °F 1.7 °F 1011.7 in WNW 4.7 mph 8.0 mph 92 % 0.3 in
21:48 2.8 °F 1.6 °F 1012.1 in West 3.2 mph 11.3 mph 92 % 0.0 in
21:54 2.9 °F 1.7 °F 1012.1 in NW 6.4 mph 12.9 mph 92 % 0.0 in
22:00 2.9 °F 1.7 °F 1012.1 in WNW 3.2 mph 9.7 mph 92 % 0.0 in
22:06 2.8 °F 1.6 °F 1012.1 in WNW 7.9 mph 9.7 mph 92 % 0.0 in
22:12 2.8 °F 1.6 °F 1012.1 in West 9.7 mph 16.1 mph 92 % 0.0 in
22:18 2.8 °F 1.6 °F 1012.1 in NNW 9.7 mph 12.9 mph 92 % 0.0 in
22:24 2.9 °F 1.7 °F 1012.1 in WNW 9.7 mph 16.1 mph 92 % 0.0 in
22:30 2.8 °F 1.6 °F 1012.1 in NW 6.4 mph 17.7 mph 92 % 0.0 in
22:36 2.8 °F 1.6 °F 1012.1 in NW 3.2 mph 14.5 mph 92 % 0.0 in
22:42 2.8 °F 1.6 °F 1012.1 in WNW 9.7 mph 12.9 mph 92 % 0.0 in
22:48 2.7 °F 1.5 °F 1011.7 in WNW 6.4 mph 14.5 mph 92 % 0.0 in
22:54 2.7 °F 1.5 °F 1011.7 in WNW 7.9 mph 12.9 mph 92 % 0.0 in
23:00 2.8 °F 1.6 °F 1011.7 in WNW 6.4 mph 16.1 mph 92 % 0.0 in
23:06 2.9 °F 1.7 °F 1011.7 in NW 4.7 mph 9.7 mph 92 % 0.0 in
23:12 2.9 °F 1.7 °F 1011.7 in WNW 7.9 mph 11.3 mph 92 % 0.0 in
23:18 2.9 °F 1.7 °F 1011.7 in WNW 6.4 mph 9.7 mph 92 % 0.0 in
23:24 2.9 °F 1.7 °F 1011.7 in West 7.9 mph 11.3 mph 92 % 0.0 in
23:30 3.0 °F 1.8 °F 1011.7 in West 4.7 mph 8.0 mph 92 % 0.0 in
23:36 2.9 °F 1.7 °F 1011.7 in WNW 6.4 mph 9.7 mph 92 % 0.0 in
23:42 2.9 °F 1.7 °F 1011.7 in West 6.4 mph 11.3 mph 92 % 0.0 in
23:48 2.9 °F 1.7 °F 1011.7 in WSW 6.4 mph 11.3 mph 92 % 0.0 in
23:54 2.8 °F 1.6 °F 1011.7 in NW 6.4 mph 9.7 mph 92 % 0.0 in
Meteo18
Compliments of Weather Underground - 4 mb

Script developed by  Jim McMurry - jmcmurry@mwt.net Adapted for the template by  Wim van der Kuil - Leuven-Template.eu

You find our weather info also at:

European Weather Network

Weather Underground

Equipment we use:

Weather-station
Davis Vue

Weather-program
Meteobridge

Weather-server
Raspberry PI 2 B+

Provider
1 and 1

Davis Vue

Meteobridge

Raspberry PI 2 B+

1 and 1